sensor_id;sensor_type;location;lat;lon;timestamp;P1;durP1;ratioP1;P2;durP2;ratioP2
49544;SDS011;74870;42.636;23.302;2024-03-23T00:55:30;2.17;;;2.00;;
49544;SDS011;74870;42.636;23.302;2024-03-23T00:57:55;2.40;;;2.20;;
49544;SDS011;74870;42.636;23.302;2024-03-23T01:00:20;2.20;;;2.10;;
49544;SDS011;74870;42.636;23.302;2024-03-23T01:02:46;2.00;;;1.90;;
49544;SDS011;74870;42.636;23.302;2024-03-23T01:05:11;2.50;;;2.30;;
49544;SDS011;74870;42.636;23.302;2024-03-23T01:07:37;2.23;;;2.03;;
49544;SDS011;74870;42.636;23.302;2024-03-23T01:10:02;2.30;;;2.10;;
49544;SDS011;74870;42.636;23.302;2024-03-23T01:12:27;2.10;;;2.00;;
49544;SDS011;74870;42.636;23.302;2024-03-23T01:14:53;2.30;;;2.20;;
49544;SDS011;74870;42.636;23.302;2024-03-23T01:17:18;2.13;;;1.93;;
49544;SDS011;74870;42.636;23.302;2024-03-23T01:19:44;3.23;;;3.00;;
49544;SDS011;74870;42.636;23.302;2024-03-23T01:22:09;3.03;;;2.83;;
49544;SDS011;74870;42.636;23.302;2024-03-23T01:24:37;5.00;;;3.63;;
49544;SDS011;74870;42.636;23.302;2024-03-23T01:27:03;12.00;;;6.93;;
49544;SDS011;74870;42.636;23.302;2024-03-23T01:29:28;12.63;;;7.37;;
49544;SDS011;74870;42.636;23.302;2024-03-23T01:31:54;11.10;;;6.47;;
49544;SDS011;74870;42.636;23.302;2024-03-23T01:34:19;6.97;;;4.47;;
49544;SDS011;74870;42.636;23.302;2024-03-23T01:36:45;3.83;;;3.40;;
49544;SDS011;74870;42.636;23.302;2024-03-23T01:39:11;3.20;;;2.90;;
49544;SDS011;74870;42.636;23.302;2024-03-23T01:41:37;3.37;;;2.67;;
49544;SDS011;74870;42.636;23.302;2024-03-23T01:44:05;2.37;;;2.17;;
49544;SDS011;74870;42.636;23.302;2024-03-23T01:46:34;2.50;;;1.90;;
49544;SDS011;74870;42.636;23.302;2024-03-23T01:49:01;2.70;;;2.20;;
49544;SDS011;74870;42.636;23.302;2024-03-23T01:51:27;2.03;;;1.93;;
49544;SDS011;74870;42.636;23.302;2024-03-23T01:53:54;2.20;;;2.00;;
49544;SDS011;74870;42.636;23.302;2024-03-23T01:56:20;2.23;;;2.13;;
49544;SDS011;74870;42.636;23.302;2024-03-23T01:58:45;2.07;;;1.97;;
49544;SDS011;74870;42.636;23.302;2024-03-23T02:01:11;2.13;;;1.93;;
49544;SDS011;74870;42.636;23.302;2024-03-23T02:03:36;2.20;;;2.10;;
49544;SDS011;74870;42.636;23.302;2024-03-23T02:06:02;3.13;;;2.30;;
49544;SDS011;74870;42.636;23.302;2024-03-23T02:08:28;3.07;;;2.20;;
49544;SDS011;74870;42.636;23.302;2024-03-23T02:10:56;2.43;;;2.10;;
49544;SDS011;74870;42.636;23.302;2024-03-23T02:13:21;4.60;;;3.10;;
49544;SDS011;74870;42.636;23.302;2024-03-23T02:15:46;5.20;;;4.33;;
49544;SDS011;74870;42.636;23.302;2024-03-23T02:18:13;3.57;;;2.97;;
49544;SDS011;74870;42.636;23.302;2024-03-23T02:20:38;9.97;;;8.20;;
49544;SDS011;74870;42.636;23.302;2024-03-23T02:23:04;7.80;;;5.33;;
49544;SDS011;74870;42.636;23.302;2024-03-23T02:25:31;3.77;;;3.47;;
49544;SDS011;74870;42.636;23.302;2024-03-23T02:27:57;2.87;;;2.60;;
49544;SDS011;74870;42.636;23.302;2024-03-23T02:30:24;2.80;;;2.60;;
49544;SDS011;74870;42.636;23.302;2024-03-23T02:32:50;2.97;;;2.73;;
49544;SDS011;74870;42.636;23.302;2024-03-23T02:35:15;2.43;;;2.27;;
49544;SDS011;74870;42.636;23.302;2024-03-23T02:37:41;3.03;;;2.70;;
49544;SDS011;74870;42.636;23.302;2024-03-23T02:40:06;3.00;;;2.80;;
49544;SDS011;74870;42.636;23.302;2024-03-23T02:42:32;3.97;;;3.53;;
49544;SDS011;74870;42.636;23.302;2024-03-23T02:44:58;3.80;;;3.20;;
49544;SDS011;74870;42.636;23.302;2024-03-23T02:47:23;3.50;;;3.20;;
49544;SDS011;74870;42.636;23.302;2024-03-23T02:49:49;5.13;;;4.00;;
49544;SDS011;74870;42.636;23.302;2024-03-23T02:52:14;5.40;;;3.80;;
49544;SDS011;74870;42.636;23.302;2024-03-23T02:54:40;4.90;;;3.40;;
49544;SDS011;74870;42.636;23.302;2024-03-23T02:57:07;3.53;;;3.23;;
49544;SDS011;74870;42.636;23.302;2024-03-23T02:59:32;3.60;;;3.30;;
49544;SDS011;74870;42.636;23.302;2024-03-23T03:01:58;2.90;;;2.70;;
49544;SDS011;74870;42.636;23.302;2024-03-23T03:04:25;2.60;;;2.40;;
49544;SDS011;74870;42.636;23.302;2024-03-23T03:06:50;2.60;;;2.40;;
49544;SDS011;74870;42.636;23.302;2024-03-23T03:09:15;2.73;;;2.53;;
49544;SDS011;74870;42.636;23.302;2024-03-23T03:11:41;3.20;;;2.70;;
49544;SDS011;74870;42.636;23.302;2024-03-23T03:14:06;3.30;;;2.70;;
49544;SDS011;74870;42.636;23.302;2024-03-23T03:16:33;4.40;;;3.60;;
49544;SDS011;74870;42.636;23.302;2024-03-23T03:18:58;2.80;;;2.60;;
49544;SDS011;74870;42.636;23.302;2024-03-23T03:21:24;2.50;;;2.40;;
49544;SDS011;74870;42.636;23.302;2024-03-23T03:23:49;3.00;;;2.60;;
49544;SDS011;74870;42.636;23.302;2024-03-23T03:26:17;2.77;;;2.43;;
49544;SDS011;74870;42.636;23.302;2024-03-23T03:28:43;2.67;;;2.47;;
49544;SDS011;74870;42.636;23.302;2024-03-23T03:31:13;2.93;;;2.53;;
49544;SDS011;74870;42.636;23.302;2024-03-23T03:33:39;6.33;;;2.83;;
49544;SDS011;74870;42.636;23.302;2024-03-23T03:36:04;2.80;;;2.60;;
49544;SDS011;74870;42.636;23.302;2024-03-23T03:38:30;2.83;;;2.60;;
49544;SDS011;74870;42.636;23.302;2024-03-23T03:40:55;2.40;;;2.20;;
49544;SDS011;74870;42.636;23.302;2024-03-23T03:43:21;2.80;;;2.60;;
49544;SDS011;74870;42.636;23.302;2024-03-23T03:45:53;3.37;;;3.07;;
49544;SDS011;74870;42.636;23.302;2024-03-23T03:48:19;4.33;;;2.77;;
49544;SDS011;74870;42.636;23.302;2024-03-23T03:50:44;3.90;;;2.97;;
49544;SDS011;74870;42.636;23.302;2024-03-23T03:53:10;6.33;;;3.17;;
49544;SDS011;74870;42.636;23.302;2024-03-23T03:55:36;4.37;;;3.33;;
49544;SDS011;74870;42.636;23.302;2024-03-23T03:58:02;5.83;;;4.73;;
49544;SDS011;74870;42.636;23.302;2024-03-23T04:00:27;6.80;;;6.10;;
49544;SDS011;74870;42.636;23.302;2024-03-23T04:02:53;4.57;;;4.17;;
49544;SDS011;74870;42.636;23.302;2024-03-23T04:05:18;5.90;;;4.87;;
49544;SDS011;74870;42.636;23.302;2024-03-23T04:07:45;6.33;;;4.53;;
49544;SDS011;74870;42.636;23.302;2024-03-23T04:10:10;5.27;;;4.77;;
49544;SDS011;74870;42.636;23.302;2024-03-23T04:12:36;5.40;;;4.37;;
49544;SDS011;74870;42.636;23.302;2024-03-23T04:15:02;5.83;;;4.20;;
49544;SDS011;74870;42.636;23.302;2024-03-23T04:17:29;5.00;;;4.50;;
49544;SDS011;74870;42.636;23.302;2024-03-23T04:19:57;4.73;;;4.20;;
49544;SDS011;74870;42.636;23.302;2024-03-23T04:22:22;4.87;;;4.40;;
49544;SDS011;74870;42.636;23.302;2024-03-23T04:24:51;4.47;;;4.07;;
49544;SDS011;74870;42.636;23.302;2024-03-23T04:27:18;5.30;;;4.10;;
49544;SDS011;74870;42.636;23.302;2024-03-23T04:29:46;4.07;;;3.63;;
49544;SDS011;74870;42.636;23.302;2024-03-23T04:32:12;4.70;;;3.80;;
49544;SDS011;74870;42.636;23.302;2024-03-23T04:34:39;4.57;;;3.50;;
49544;SDS011;74870;42.636;23.302;2024-03-23T04:37:04;5.43;;;3.90;;
49544;SDS011;74870;42.636;23.302;2024-03-23T04:39:29;3.97;;;3.60;;
49544;SDS011;74870;42.636;23.302;2024-03-23T04:41:55;5.10;;;4.07;;
49544;SDS011;74870;42.636;23.302;2024-03-23T04:44:20;3.60;;;3.30;;
49544;SDS011;74870;42.636;23.302;2024-03-23T04:46:46;4.67;;;3.77;;
49544;SDS011;74870;42.636;23.302;2024-03-23T04:49:11;4.43;;;3.77;;
49544;SDS011;74870;42.636;23.302;2024-03-23T04:51:37;5.00;;;3.63;;
49544;SDS011;74870;42.636;23.302;2024-03-23T04:54:02;3.93;;;3.53;;
49544;SDS011;74870;42.636;23.302;2024-03-23T04:56:29;4.10;;;3.30;;
49544;SDS011;74870;42.636;23.302;2024-03-23T04:58:55;4.27;;;3.20;;
49544;SDS011;74870;42.636;23.302;2024-03-23T05:01:26;4.50;;;4.10;;
49544;SDS011;74870;42.636;23.302;2024-03-23T05:03:51;6.53;;;5.23;;
49544;SDS011;74870;42.636;23.302;2024-03-23T05:06:17;5.20;;;4.30;;
49544;SDS011;74870;42.636;23.302;2024-03-23T05:08:43;4.87;;;3.63;;
49544;SDS011;74870;42.636;23.302;2024-03-23T05:11:09;4.47;;;3.70;;
49544;SDS011;74870;42.636;23.302;2024-03-23T05:13:34;7.73;;;6.93;;
49544;SDS011;74870;42.636;23.302;2024-03-23T05:15:59;6.00;;;5.37;;
49544;SDS011;74870;42.636;23.302;2024-03-23T05:18:25;7.53;;;5.40;;
49544;SDS011;74870;42.636;23.302;2024-03-23T05:20:55;8.70;;;7.67;;
49544;SDS011;74870;42.636;23.302;2024-03-23T05:23:24;11.93;;;9.50;;
49544;SDS011;74870;42.636;23.302;2024-03-23T05:25:50;12.07;;;8.93;;
49544;SDS011;74870;42.636;23.302;2024-03-23T05:28:16;12.87;;;10.00;;
49544;SDS011;74870;42.636;23.302;2024-03-23T05:30:43;11.80;;;10.03;;
49544;SDS011;74870;42.636;23.302;2024-03-23T05:33:08;12.93;;;10.00;;
49544;SDS011;74870;42.636;23.302;2024-03-23T05:35:34;12.27;;;9.80;;
49544;SDS011;74870;42.636;23.302;2024-03-23T05:37:59;10.10;;;8.70;;
49544;SDS011;74870;42.636;23.302;2024-03-23T05:40:27;13.03;;;9.50;;
49544;SDS011;74870;42.636;23.302;2024-03-23T05:42:52;14.20;;;9.63;;
49544;SDS011;74870;42.636;23.302;2024-03-23T05:45:18;14.63;;;9.77;;
49544;SDS011;74870;42.636;23.302;2024-03-23T05:47:44;14.30;;;10.63;;
49544;SDS011;74870;42.636;23.302;2024-03-23T05:50:10;14.50;;;11.10;;
49544;SDS011;74870;42.636;23.302;2024-03-23T05:52:37;13.17;;;10.90;;
49544;SDS011;74870;42.636;23.302;2024-03-23T05:55:04;11.70;;;10.33;;
49544;SDS011;74870;42.636;23.302;2024-03-23T05:57:30;15.23;;;10.57;;
49544;SDS011;74870;42.636;23.302;2024-03-23T05:59:55;12.20;;;9.73;;
49544;SDS011;74870;42.636;23.302;2024-03-23T06:02:20;12.70;;;10.10;;
49544;SDS011;74870;42.636;23.302;2024-03-23T06:04:46;10.40;;;9.40;;
49544;SDS011;74870;42.636;23.302;2024-03-23T06:07:11;12.27;;;10.63;;
49544;SDS011;74870;42.636;23.302;2024-03-23T06:09:39;15.18;;;10.73;;
49544;SDS011;74870;42.636;23.302;2024-03-23T06:12:05;10.47;;;9.13;;
49544;SDS011;74870;42.636;23.302;2024-03-23T06:14:31;11.67;;;9.17;;
49544;SDS011;74870;42.636;23.302;2024-03-23T06:16:56;10.27;;;9.37;;
49544;SDS011;74870;42.636;23.302;2024-03-23T06:19:22;14.33;;;10.40;;
49544;SDS011;74870;42.636;23.302;2024-03-23T06:21:47;12.57;;;9.93;;
49544;SDS011;74870;42.636;23.302;2024-03-23T06:24:13;11.47;;;10.27;;
49544;SDS011;74870;42.636;23.302;2024-03-23T06:26:38;11.30;;;10.10;;
49544;SDS011;74870;42.636;23.302;2024-03-23T06:29:03;11.63;;;9.90;;
49544;SDS011;74870;42.636;23.302;2024-03-23T06:31:30;11.93;;;10.20;;
49544;SDS011;74870;42.636;23.302;2024-03-23T06:33:56;11.23;;;9.83;;
49544;SDS011;74870;42.636;23.302;2024-03-23T06:36:21;12.10;;;9.97;;
49544;SDS011;74870;42.636;23.302;2024-03-23T06:38:46;14.73;;;11.43;;
49544;SDS011;74870;42.636;23.302;2024-03-23T06:41:12;13.47;;;10.60;;
49544;SDS011;74870;42.636;23.302;2024-03-23T06:43:37;11.20;;;10.10;;
49544;SDS011;74870;42.636;23.302;2024-03-23T06:46:03;12.27;;;10.17;;
49544;SDS011;74870;42.636;23.302;2024-03-23T06:48:31;14.23;;;10.07;;
49544;SDS011;74870;42.636;23.302;2024-03-23T06:50:57;15.50;;;11.17;;
49544;SDS011;74870;42.636;23.302;2024-03-23T06:53:22;14.13;;;12.03;;
49544;SDS011;74870;42.636;23.302;2024-03-23T06:55:54;12.37;;;11.03;;
49544;SDS011;74870;42.636;23.302;2024-03-23T06:58:21;12.90;;;11.47;;
49544;SDS011;74870;42.636;23.302;2024-03-23T07:00:47;13.93;;;10.83;;
49544;SDS011;74870;42.636;23.302;2024-03-23T07:03:14;15.13;;;11.33;;
49544;SDS011;74870;42.636;23.302;2024-03-23T07:05:40;12.93;;;10.47;;
49544;SDS011;74870;42.636;23.302;2024-03-23T07:08:06;13.40;;;10.83;;
49544;SDS011;74870;42.636;23.302;2024-03-23T07:10:32;14.13;;;11.47;;
49544;SDS011;74870;42.636;23.302;2024-03-23T07:12:57;12.47;;;11.00;;
49544;SDS011;74870;42.636;23.302;2024-03-23T07:15:22;11.70;;;10.50;;
49544;SDS011;74870;42.636;23.302;2024-03-23T07:17:48;13.60;;;11.53;;
49544;SDS011;74870;42.636;23.302;2024-03-23T07:20:13;14.17;;;10.73;;
49544;SDS011;74870;42.636;23.302;2024-03-23T07:22:39;15.40;;;11.93;;
49544;SDS011;74870;42.636;23.302;2024-03-23T07:25:05;12.57;;;10.57;;
49544;SDS011;74870;42.636;23.302;2024-03-23T07:27:31;16.23;;;11.37;;
49544;SDS011;74870;42.636;23.302;2024-03-23T07:29:57;13.87;;;10.90;;
49544;SDS011;74870;42.636;23.302;2024-03-23T07:32:22;15.47;;;11.23;;
49544;SDS011;74870;42.636;23.302;2024-03-23T07:34:48;14.63;;;11.07;;
49544;SDS011;74870;42.636;23.302;2024-03-23T07:37:13;18.37;;;12.00;;
49544;SDS011;74870;42.636;23.302;2024-03-23T07:39:41;12.57;;;11.27;;
49544;SDS011;74870;42.636;23.302;2024-03-23T07:42:07;15.33;;;10.80;;
49544;SDS011;74870;42.636;23.302;2024-03-23T07:44:32;14.17;;;11.67;;
49544;SDS011;74870;42.636;23.302;2024-03-23T07:46:58;13.03;;;10.73;;
49544;SDS011;74870;42.636;23.302;2024-03-23T07:49:25;15.13;;;10.70;;
49544;SDS011;74870;42.636;23.302;2024-03-23T07:51:50;14.13;;;10.93;;
49544;SDS011;74870;42.636;23.302;2024-03-23T07:54:16;14.30;;;11.27;;
49544;SDS011;74870;42.636;23.302;2024-03-23T07:56:41;16.63;;;11.50;;
49544;SDS011;74870;42.636;23.302;2024-03-23T07:59:07;15.60;;;11.20;;
49544;SDS011;74870;42.636;23.302;2024-03-23T08:01:32;14.37;;;11.30;;
49544;SDS011;74870;42.636;23.302;2024-03-23T08:03:57;16.03;;;10.70;;
49544;SDS011;74870;42.636;23.302;2024-03-23T08:06:23;13.47;;;10.83;;
49544;SDS011;74870;42.636;23.302;2024-03-23T08:08:50;15.20;;;11.27;;
49544;SDS011;74870;42.636;23.302;2024-03-23T08:11:27;13.20;;;10.87;;
49544;SDS011;74870;42.636;23.302;2024-03-23T08:13:54;17.50;;;11.30;;
49544;SDS011;74870;42.636;23.302;2024-03-23T08:16:20;13.90;;;10.93;;
49544;SDS011;74870;42.636;23.302;2024-03-23T08:18:46;13.83;;;11.13;;
49544;SDS011;74870;42.636;23.302;2024-03-23T08:21:11;14.93;;;11.23;;
49544;SDS011;74870;42.636;23.302;2024-03-23T08:23:37;14.57;;;11.37;;
49544;SDS011;74870;42.636;23.302;2024-03-23T08:26:03;14.43;;;10.30;;
49544;SDS011;74870;42.636;23.302;2024-03-23T08:28:30;12.90;;;11.07;;
49544;SDS011;74870;42.636;23.302;2024-03-23T08:30:55;12.03;;;10.60;;
49544;SDS011;74870;42.636;23.302;2024-03-23T08:33:22;19.10;;;11.70;;
49544;SDS011;74870;42.636;23.302;2024-03-23T08:35:57;15.90;;;11.53;;
49544;SDS011;74870;42.636;23.302;2024-03-23T08:38:24;14.53;;;10.83;;
49544;SDS011;74870;42.636;23.302;2024-03-23T08:40:59;16.93;;;11.50;;
49544;SDS011;74870;42.636;23.302;2024-03-23T08:43:29;15.53;;;10.33;;
49544;SDS011;74870;42.636;23.302;2024-03-23T08:46:04;11.77;;;10.33;;
49544;SDS011;74870;42.636;23.302;2024-03-23T08:48:55;13.13;;;10.30;;
49544;SDS011;74870;42.636;23.302;2024-03-23T08:51:20;13.53;;;10.67;;
49544;SDS011;74870;42.636;23.302;2024-03-23T08:53:46;14.30;;;10.10;;
49544;SDS011;74870;42.636;23.302;2024-03-23T08:56:11;13.03;;;10.50;;
49544;SDS011;74870;42.636;23.302;2024-03-23T08:58:37;12.87;;;10.50;;
49544;SDS011;74870;42.636;23.302;2024-03-23T09:01:12;12.93;;;10.00;;
49544;SDS011;74870;42.636;23.302;2024-03-23T09:03:38;13.47;;;9.57;;
49544;SDS011;74870;42.636;23.302;2024-03-23T09:06:10;13.87;;;9.60;;
49544;SDS011;74870;42.636;23.302;2024-03-23T09:08:37;12.97;;;10.10;;
49544;SDS011;74870;42.636;23.302;2024-03-23T09:11:09;15.50;;;10.50;;
49544;SDS011;74870;42.636;23.302;2024-03-23T09:13:37;13.03;;;9.80;;
49544;SDS011;74870;42.636;23.302;2024-03-23T09:16:03;11.67;;;9.73;;
49544;SDS011;74870;42.636;23.302;2024-03-23T09:18:31;14.03;;;10.00;;
49544;SDS011;74870;42.636;23.302;2024-03-23T09:20:57;13.77;;;9.63;;
49544;SDS011;74870;42.636;23.302;2024-03-23T09:23:23;10.50;;;9.17;;
49544;SDS011;74870;42.636;23.302;2024-03-23T09:25:48;11.23;;;9.23;;
49544;SDS011;74870;42.636;23.302;2024-03-23T09:28:14;10.63;;;8.87;;
49544;SDS011;74870;42.636;23.302;2024-03-23T09:30:39;9.33;;;8.30;;
49544;SDS011;74870;42.636;23.302;2024-03-23T09:33:10;10.67;;;8.90;;
49544;SDS011;74870;42.636;23.302;2024-03-23T09:35:37;11.03;;;8.00;;
49544;SDS011;74870;42.636;23.302;2024-03-23T09:38:06;9.83;;;8.83;;
49544;SDS011;74870;42.636;23.302;2024-03-23T09:40:35;12.53;;;8.20;;
49544;SDS011;74870;42.636;23.302;2024-03-23T09:43:06;14.00;;;9.00;;
49544;SDS011;74870;42.636;23.302;2024-03-23T09:45:32;11.17;;;8.80;;
49544;SDS011;74870;42.636;23.302;2024-03-23T09:48:03;10.23;;;8.13;;
49544;SDS011;74870;42.636;23.302;2024-03-23T09:50:29;13.17;;;9.17;;
49544;SDS011;74870;42.636;23.302;2024-03-23T09:52:54;10.50;;;9.17;;
49544;SDS011;74870;42.636;23.302;2024-03-23T09:55:20;14.40;;;8.70;;
49544;SDS011;74870;42.636;23.302;2024-03-23T09:57:45;11.30;;;8.70;;
49544;SDS011;74870;42.636;23.302;2024-03-23T10:00:11;12.47;;;7.93;;
49544;SDS011;74870;42.636;23.302;2024-03-23T10:02:37;11.83;;;8.60;;
49544;SDS011;74870;42.636;23.302;2024-03-23T10:05:03;14.73;;;8.90;;
49544;SDS011;74870;42.636;23.302;2024-03-23T10:07:29;10.63;;;8.60;;
49544;SDS011;74870;42.636;23.302;2024-03-23T10:09:54;11.73;;;8.73;;
49544;SDS011;74870;42.636;23.302;2024-03-23T10:12:20;10.33;;;8.97;;
49544;SDS011;74870;42.636;23.302;2024-03-23T10:14:46;15.03;;;8.67;;
49544;SDS011;74870;42.636;23.302;2024-03-23T10:17:18;14.07;;;8.63;;
49544;SDS011;74870;42.636;23.302;2024-03-23T10:19:51;12.13;;;8.10;;
49544;SDS011;74870;42.636;23.302;2024-03-23T10:24:52;8.20;;;7.40;;
49544;SDS011;74870;42.636;23.302;2024-03-23T10:27:19;9.03;;;7.63;;
49544;SDS011;74870;42.636;23.302;2024-03-23T10:29:48;11.53;;;7.50;;
49544;SDS011;74870;42.636;23.302;2024-03-23T10:32:15;8.67;;;7.50;;
49544;SDS011;74870;42.636;23.302;2024-03-23T10:34:42;9.00;;;7.37;;
49544;SDS011;74870;42.636;23.302;2024-03-23T10:37:08;8.60;;;7.70;;
49544;SDS011;74870;42.636;23.302;2024-03-23T10:39:37;11.67;;;8.20;;
49544;SDS011;74870;42.636;23.302;2024-03-23T10:42:07;9.50;;;7.23;;
49544;SDS011;74870;42.636;23.302;2024-03-23T10:44:36;10.40;;;7.70;;
49544;SDS011;74870;42.636;23.302;2024-03-23T10:47:03;11.13;;;8.47;;
49544;SDS011;74870;42.636;23.302;2024-03-23T10:49:33;9.63;;;8.33;;
49544;SDS011;74870;42.636;23.302;2024-03-23T10:52:00;8.77;;;7.10;;
49544;SDS011;74870;42.636;23.302;2024-03-23T10:54:27;9.63;;;7.03;;
49544;SDS011;74870;42.636;23.302;2024-03-23T10:59:34;7.83;;;6.73;;
49544;SDS011;74870;42.636;23.302;2024-03-23T11:02:05;9.50;;;6.83;;
49544;SDS011;74870;42.636;23.302;2024-03-23T11:04:33;12.27;;;7.27;;
49544;SDS011;74870;42.636;23.302;2024-03-23T11:07:00;10.87;;;7.60;;
49544;SDS011;74870;42.636;23.302;2024-03-23T11:15:00;9.23;;;7.63;;
49544;SDS011;74870;42.636;23.302;2024-03-23T11:17:30;8.43;;;6.67;;
49544;SDS011;74870;42.636;23.302;2024-03-23T11:19:59;8.63;;;7.13;;
49544;SDS011;74870;42.636;23.302;2024-03-23T11:25:23;9.00;;;7.20;;
49544;SDS011;74870;42.636;23.302;2024-03-23T11:27:56;18.50;;;14.20;;
49544;SDS011;74870;42.636;23.302;2024-03-23T11:30:27;10.80;;;7.47;;
49544;SDS011;74870;42.636;23.302;2024-03-23T11:32:57;8.90;;;6.40;;
49544;SDS011;74870;42.636;23.302;2024-03-23T11:35:26;10.07;;;6.70;;
49544;SDS011;74870;42.636;23.302;2024-03-23T11:40:40;7.17;;;5.97;;
49544;SDS011;74870;42.636;23.302;2024-03-23T11:43:09;7.57;;;6.93;;
49544;SDS011;74870;42.636;23.302;2024-03-23T11:45:42;7.33;;;6.53;;
49544;SDS011;74870;42.636;23.302;2024-03-23T11:48:16;7.33;;;6.30;;
49544;SDS011;74870;42.636;23.302;2024-03-23T11:50:44;6.00;;;5.40;;
49544;SDS011;74870;42.636;23.302;2024-03-23T11:55:47;9.40;;;5.67;;
49544;SDS011;74870;42.636;23.302;2024-03-23T11:58:17;7.33;;;5.80;;
49544;SDS011;74870;42.636;23.302;2024-03-23T12:03:16;6.50;;;5.30;;
49544;SDS011;74870;42.636;23.302;2024-03-23T12:05:41;5.93;;;5.30;;
49544;SDS011;74870;42.636;23.302;2024-03-23T12:10:43;7.43;;;5.43;;
49544;SDS011;74870;42.636;23.302;2024-03-23T12:13:18;5.87;;;5.17;;
49544;SDS011;74870;42.636;23.302;2024-03-23T12:16:18;6.90;;;4.80;;
49544;SDS011;74870;42.636;23.302;2024-03-23T12:19:05;5.30;;;4.80;;
49544;SDS011;74870;42.636;23.302;2024-03-23T12:22:04;5.27;;;4.80;;
49544;SDS011;74870;42.636;23.302;2024-03-23T12:24:31;5.77;;;4.60;;
49544;SDS011;74870;42.636;23.302;2024-03-23T12:27:03;5.77;;;4.50;;
49544;SDS011;74870;42.636;23.302;2024-03-23T12:29:32;5.13;;;4.43;;
49544;SDS011;74870;42.636;23.302;2024-03-23T12:32:00;7.23;;;4.40;;
49544;SDS011;74870;42.636;23.302;2024-03-23T12:34:26;6.03;;;4.97;;
49544;SDS011;74870;42.636;23.302;2024-03-23T12:36:52;3.77;;;3.40;;
49544;SDS011;74870;42.636;23.302;2024-03-23T12:39:19;4.77;;;3.30;;
49544;SDS011;74870;42.636;23.302;2024-03-23T12:42:13;4.30;;;3.87;;
49544;SDS011;74870;42.636;23.302;2024-03-23T12:44:40;4.00;;;3.60;;
49544;SDS011;74870;42.636;23.302;2024-03-23T12:47:08;3.30;;;2.97;;
49544;SDS011;74870;42.636;23.302;2024-03-23T12:49:38;4.60;;;4.10;;
49544;SDS011;74870;42.636;23.302;2024-03-23T12:52:04;4.10;;;3.50;;
49544;SDS011;74870;42.636;23.302;2024-03-23T12:54:35;3.70;;;3.40;;
49544;SDS011;74870;42.636;23.302;2024-03-23T12:57:04;2.70;;;2.50;;
49544;SDS011;74870;42.636;23.302;2024-03-23T12:59:30;2.57;;;2.37;;
49544;SDS011;74870;42.636;23.302;2024-03-23T13:01:55;3.67;;;2.00;;
49544;SDS011;74870;42.636;23.302;2024-03-23T13:04:21;2.57;;;2.23;;
49544;SDS011;74870;42.636;23.302;2024-03-23T13:06:47;4.07;;;2.20;;
49544;SDS011;74870;42.636;23.302;2024-03-23T13:09:12;2.20;;;2.00;;
49544;SDS011;74870;42.636;23.302;2024-03-23T13:11:37;3.07;;;2.07;;
49544;SDS011;74870;42.636;23.302;2024-03-23T13:14:03;3.07;;;2.77;;
49544;SDS011;74870;42.636;23.302;2024-03-23T13:16:29;6.97;;;4.87;;
49544;SDS011;74870;42.636;23.302;2024-03-23T13:18:54;3.60;;;3.13;;
49544;SDS011;74870;42.636;23.302;2024-03-23T13:21:19;4.07;;;3.67;;
49544;SDS011;74870;42.636;23.302;2024-03-23T13:23:48;3.60;;;3.30;;
49544;SDS011;74870;42.636;23.302;2024-03-23T13:26:15;1.60;;;1.50;;
49544;SDS011;74870;42.636;23.302;2024-03-23T13:28:40;1.10;;;1.10;;
49544;SDS011;74870;42.636;23.302;2024-03-23T13:31:06;2.10;;;1.87;;
49544;SDS011;74870;42.636;23.302;2024-03-23T13:33:33;2.53;;;2.37;;
49544;SDS011;74870;42.636;23.302;2024-03-23T13:35:59;7.47;;;5.37;;
49544;SDS011;74870;42.636;23.302;2024-03-23T13:38:25;2.23;;;2.13;;
49544;SDS011;74870;42.636;23.302;2024-03-23T13:40:57;2.17;;;1.07;;
49544;SDS011;74870;42.636;23.302;2024-03-23T13:43:24;3.83;;;2.87;;
49544;SDS011;74870;42.636;23.302;2024-03-23T13:45:54;1.90;;;1.37;;
49544;SDS011;74870;42.636;23.302;2024-03-23T13:48:23;2.43;;;1.20;;
49544;SDS011;74870;42.636;23.302;2024-03-23T13:50:59;1.10;;;1.00;;
49544;SDS011;74870;42.636;23.302;2024-03-23T13:53:25;1.30;;;1.20;;
49544;SDS011;74870;42.636;23.302;2024-03-23T13:55:51;1.87;;;1.10;;
49544;SDS011;74870;42.636;23.302;2024-03-23T13:58:16;1.47;;;1.30;;
49544;SDS011;74870;42.636;23.302;2024-03-23T14:00:42;1.67;;;1.50;;
49544;SDS011;74870;42.636;23.302;2024-03-23T14:03:10;1.30;;;1.20;;
49544;SDS011;74870;42.636;23.302;2024-03-23T14:05:36;1.30;;;1.20;;
49544;SDS011;74870;42.636;23.302;2024-03-23T14:08:08;3.80;;;3.50;;
49544;SDS011;74870;42.636;23.302;2024-03-23T14:10:35;3.53;;;3.23;;
49544;SDS011;74870;42.636;23.302;2024-03-23T14:13:01;3.17;;;1.80;;
49544;SDS011;74870;42.636;23.302;2024-03-23T14:15:28;2.80;;;2.60;;
49544;SDS011;74870;42.636;23.302;2024-03-23T14:17:54;1.50;;;1.40;;
49544;SDS011;74870;42.636;23.302;2024-03-23T14:20:22;1.63;;;1.50;;
49544;SDS011;74870;42.636;23.302;2024-03-23T14:22:48;1.57;;;1.47;;
49544;SDS011;74870;42.636;23.302;2024-03-23T14:25:14;1.30;;;1.17;;
49544;SDS011;74870;42.636;23.302;2024-03-23T14:27:39;2.67;;;1.30;;
49544;SDS011;74870;42.636;23.302;2024-03-23T14:30:05;1.27;;;1.27;;
49544;SDS011;74870;42.636;23.302;2024-03-23T14:32:31;1.20;;;1.20;;
49544;SDS011;74870;42.636;23.302;2024-03-23T14:35:01;1.10;;;1.10;;
49544;SDS011;74870;42.636;23.302;2024-03-23T14:37:27;1.20;;;1.20;;
49544;SDS011;74870;42.636;23.302;2024-03-23T14:39:54;1.50;;;1.40;;
49544;SDS011;74870;42.636;23.302;2024-03-23T14:42:21;2.37;;;1.17;;
49544;SDS011;74870;42.636;23.302;2024-03-23T14:44:47;1.13;;;1.10;;
49544;SDS011;74870;42.636;23.302;2024-03-23T14:47:12;1.40;;;1.00;;
49544;SDS011;74870;42.636;23.302;2024-03-23T14:49:37;1.20;;;1.10;;
49544;SDS011;74870;42.636;23.302;2024-03-23T14:52:03;1.27;;;1.27;;
49544;SDS011;74870;42.636;23.302;2024-03-23T14:54:29;1.40;;;1.30;;
49544;SDS011;74870;42.636;23.302;2024-03-23T14:56:54;3.07;;;1.73;;
49544;SDS011;74870;42.636;23.302;2024-03-23T14:59:21;2.33;;;1.70;;
49544;SDS011;74870;42.636;23.302;2024-03-23T15:01:46;1.57;;;1.50;;
49544;SDS011;74870;42.636;23.302;2024-03-23T15:04:12;5.80;;;5.20;;
49544;SDS011;74870;42.636;23.302;2024-03-23T15:06:37;4.63;;;4.20;;
49544;SDS011;74870;42.636;23.302;2024-03-23T15:09:03;2.57;;;2.30;;
49544;SDS011;74870;42.636;23.302;2024-03-23T15:11:32;2.03;;;1.93;;
49544;SDS011;74870;42.636;23.302;2024-03-23T15:13:58;1.30;;;1.27;;
49544;SDS011;74870;42.636;23.302;2024-03-23T15:16:23;1.60;;;1.50;;
49544;SDS011;74870;42.636;23.302;2024-03-23T15:18:49;1.90;;;1.50;;
49544;SDS011;74870;42.636;23.302;2024-03-23T15:21:14;1.70;;;1.60;;
49544;SDS011;74870;42.636;23.302;2024-03-23T15:23:45;1.60;;;1.50;;
49544;SDS011;74870;42.636;23.302;2024-03-23T15:26:10;1.70;;;1.60;;
49544;SDS011;74870;42.636;23.302;2024-03-23T15:28:36;2.40;;;1.60;;
49544;SDS011;74870;42.636;23.302;2024-03-23T15:31:27;2.73;;;1.93;;
49544;SDS011;74870;42.636;23.302;2024-03-23T15:33:52;2.10;;;1.90;;
49544;SDS011;74870;42.636;23.302;2024-03-23T15:36:18;1.87;;;1.77;;
49544;SDS011;74870;42.636;23.302;2024-03-23T15:38:43;2.17;;;1.67;;
49544;SDS011;74870;42.636;23.302;2024-03-23T15:41:09;2.97;;;1.90;;
49544;SDS011;74870;42.636;23.302;2024-03-23T15:43:35;2.93;;;1.70;;